x

9441102 - Westport, Wa (wptw1) Weather Station

7:36 - Sun 3rd May 2015 All times are PDT. -7 hours from GMT.

  • Wind
    20mph, 22mph gusts
  • Sea Temp 56°f
  • Air Temp 53°f
  • Sea Pressure 1013.7mb
  • 9441102 - Westport, Wa
  • 9441102 - Westport, Wa

More Historic Weather Station data

Upgrade to MSW Pro to gain access to the past 30 days of data for over 8000 Wavebouys and Weather Stations around the globe.

Join Pro

Comparision Forecast

View Surf forecast
   
dim. 05/03 7:36 20 22 mph 1013.7mb 56f 53f
7:30 18 21 mph 1013.6mb 56f 53f
7:24 15 20 mph - - -
7:18 15 18 mph 1013.6mb 56f 53f
7:12 17 20 mph 1013.7mb 56f 53f
7:06 18 21 mph 1013.7mb 56f 53f
7:00 20 22 mph 1013.7mb 56f 53f
6:36 20 22 mph 1013.8mb 56f 53f
6:30 17 20 mph 1013.8mb 56f 53f
6:24 18 20 mph 1013.7mb 56f 54f
6:18 17 20 mph 1013.8mb 55f 54f
6:12 18 21 mph - - -
6:06 20 22 mph 1013.8mb 55f 54f
6:00 18 22 mph 1013.8mb 55f 54f
5:36 20 22 mph 1014.1mb 56f 54f
5:30 21 23 mph 1014.2mb 56f 54f
5:24 20 22 mph 1014.2mb 55f 54f
5:18 18 22 mph 1014.1mb 55f 54f
5:12 20 22 mph 1014.2mb 55f 54f
5:06 22 23 mph 1014.3mb 55f 54f
5:00 20 22 mph 1014.3mb 54f 54f
4:36 18 24 mph 1014.5mb 54f 54f
4:30 22 25 mph 1014.7mb 55f 54f
4:24 23 25 mph 1014.6mb 55f 54f
4:18 21 24 mph 1014.7mb 55f 54f
4:12 21 24 mph 1014.7mb 54f 54f
4:06 22 25 mph 1014.8mb 54f 54f
4:00 20 23 mph 1014.9mb 54f 54f
3:36 18 22 mph 1015.1mb 52f 54f
3:30 21 22 mph 1015.2mb 52f 54f
3:24 21 22 mph 1015.2mb 52f 54f
3:18 20 22 mph 1015.3mb 51f 55f
3:12 20 21 mph 1015.3mb 51f 54f
3:06 17 21 mph 1015.3mb 50f 54f
3:00 18 21 mph 1015.4mb 50f 55f
2:36 18 21 mph 1015.4mb 50f 55f
2:30 20 21 mph 1015.4mb 50f 54f
2:24 18 20 mph 1015.5mb 50f 55f
2:18 16 18 mph 1015.5mb 50f 55f
2:12 15 18 mph 1015.5mb 50f 55f
2:06 15 17 mph 1015.5mb 50f 54f
2:00 16 18 mph 1015.6mb 50f 54f
1:36 16 18 mph 1015.8mb 50f 54f
1:30 17 20 mph 1015.8mb 50f 54f
1:24 17 18 mph 1015.9mb 50f 54f
1:18 17 20 mph 1015.9mb 50f 54f
1:12 17 21 mph 1016mb 50f 54f
1:06 18 21 mph 1016mb 51f 54f
1:00 18 20 mph 1016.1mb 51f 54f
12:36 17
mph
1016.1mb 51f 54f
12:30 16 18 mph 1016.2mb 52f 54f
12:24 17 18 mph 1016.2mb 52f 54f
12:18 17 20 mph 1016.3mb 53f 53f
12:12 18 20 mph 1016.3mb 53f 53f
12:06 18 20 mph 1016.4mb 53f 54f
12:00 18 20 mph 1016.4mb 54f 54f
11:36 15 16 mph 1016.4mb 54f 54f
11:30 14 15 mph 1016.5mb 54f 54f
11:24 14
mph
1016.5mb 55f 54f
11:18 7 10 mph - - -
11:12 2 3 mph - - -
11:06 3
mph
1016.5mb 55f 55f
11:00 2 3 mph 1016.6mb 55f 54f
10:36 3 5 mph 1016.6mb 55f 51f
10:30 3 5 mph 1016.7mb 55f 51f
10:24 5 6 mph 1016.7mb 55f 50f
10:18 6
mph
1016.6mb 55f 49f
10:12 5 6 mph 1016.6mb 55f 49f
10:06 3 6 mph 1016.6mb 55f 49f
10:00 3 7 mph 1016.6mb 55f 49f
9:36 3 6 mph 1016.6mb 54f 48f
9:30 5 7 mph 1016.6mb 54f 47f
9:24 5 7 mph 1016.7mb 54f 47f
9:18 6 7 mph 1016.8mb 54f 47f
9:12 5 7 mph 1016.8mb 54f 47f
9:06 6 8 mph 1016.7mb 54f 47f
9:00 5 7 mph 1016.8mb 54f 46f
8:36 3 6 mph 1017mb 55f 47f
8:30 3 5 mph 1017mb 55f 47f
8:24 3 6 mph 1017mb 55f 47f
8:18 3 6 mph 1017mb 55f 47f
8:12 5 6 mph 1017mb 55f 47f
8:06 3 5 mph 1016.9mb 55f 46f
8:00 5 6 mph 1016.9mb 55f 47f
7:36 3 6 mph 1016.7mb 55f 47f
7:30 5 6 mph 1016.7mb 55f 47f
7:24 5 6 mph 1016.7mb 55f 47f
7:18 5 6 mph 1016.6mb 55f 47f
7:12 6
mph
1016.6mb 55f 47f
7:06 6
mph
- - -
7:00 5 8 mph - - -
6:30  -  mph 1016.4mb 55f 47f
6:24  -  mph 1016.3mb 55f 47f
6:18  -  mph 1016.3mb 55f 47f
6:12  -  mph 1016.3mb 55f 46f
6:06  -  mph 1016.2mb 55f 47f
6:00  -  mph 1016.2mb 55f 47f
5:36 6 7 mph 1016mb 55f 47f
5:30 6
mph
1016.1mb 55f 47f
5:24 6
mph
1016.1mb 55f 48f
5:18 6
mph
1016.1mb 55f 48f
5:12 5 6 mph 1016.1mb 55f 49f
5:06 6
mph
- - -
5:00 5 6 mph 1016.2mb 55f 48f
4:36 5 6 mph 1016.2mb 54f 48f
4:30 5 7 mph 1016.2mb 54f 48f
4:24 6 8 mph 1016.2mb 54f 48f
4:18 7 8 mph 1016.2mb 54f 48f
4:12 7 8 mph 1016.2mb 55f 48f
4:06 7 9 mph 1016.2mb 55f 48f
4:00  -  mph 1016.2mb 54f 49f
3:36 6 7 mph 1016.3mb 54f 49f
3:30 6
mph
1016.3mb 54f 49f
3:24 6 7 mph 1016.3mb 54f 49f
3:18 6 8 mph 1016.3mb 54f 49f
3:12 7 9 mph 1016.3mb 54f 49f
3:06 7 10 mph 1016.4mb 53f 49f
3:00 10 14 mph 1016.4mb 53f 49f
2:36 11 14 mph 1016.4mb 53f 50f
2:30 13 15 mph 1016.4mb 52f 50f
2:24 11 13 mph 1016.4mb 52f 50f
2:18 10 13 mph 1016.3mb 52f 50f
2:12 10 11 mph 1016.4mb 52f 50f
2:06 8 10 mph 1016.4mb 51f 50f
2:00 8 9 mph 1016.4mb 51f 50f
1:36 9 13 mph 1016.6mb 51f 51f
1:30 9 14 mph 1016.6mb 51f 51f
1:24 13 15 mph 1016.6mb 51f 51f
1:18 14 17 mph 1016.7mb 51f 51f
1:12 14 16 mph 1016.7mb 51f 51f
1:06 14 16 mph 1016.7mb 51f 51f
1:00 14 15 mph 1016.6mb 51f 51f
12:36 17 21 mph 1016.6mb 51f 51f
12:30 17 21 mph 1016.6mb 51f 51f
12:24 16 20 mph 1016.6mb 51f 51f
12:18 15 18 mph 1016.6mb 51f 51f
12:12 16 18 mph 1016.5mb 51f 51f
12:06 15 18 mph 1016.6mb 52f 51f
12:00 15 17 mph 1016.6mb 52f 51f
sam. 05/02 11:24  -  mph 1016.7mb 53f 51f
11:12  -  mph 1016.7mb 54f 51f
10:36 17 20 mph 1016.7mb 56f 51f
10:30 18 22 mph 1016.8mb 56f 52f
10:24 16 20 mph 1016.7mb 56f 52f
10:18 17 21 mph 1016.8mb 56f 52f
10:12 18 21 mph 1016.8mb 56f 52f
10:06 16 20 mph 1016.8mb 56f 52f
10:00 15 20 mph 1016.8mb 56f 52f
9:36 18 22 mph 1016.8mb 57f 52f
9:30 17 20 mph 1016.7mb 57f 52f
9:24 15 18 mph 1016.7mb 57f 52f
9:18 17 20 mph 1016.7mb 57f 52f
9:12 15 16 mph 1016.7mb 57f 52f
9:06 17 22 mph - - -
9:00 16 21 mph - - -
8:54 16 20 mph 1016.6mb 57f 52f
8:48 17 23 mph 1016.5mb 57f 52f
8:36 21 25 mph 1016.5mb 57f 52f
8:30 20 22 mph 1016.6mb 57f 52f
8:24 20 25 mph 1016.5mb 57f 52f
8:18 21 23 mph 1016.4mb 57f 52f
8:12 21 25 mph 1016.5mb 57f 52f
8:06 22 25 mph 1016.4mb 57f 52f
8:00 22 25 mph 1016.4mb 57f 52f
7:54 21 28 mph 1016.4mb 57f 52f
7:48 22 25 mph 1016.4mb 57f 53f
7:36 20 25 mph 1016.4mb 57f 52f
7:30 23 28 mph 1016.4mb 57f 53f
7:24 23 28 mph 1016.5mb 57f 52f
7:18 23 28 mph 1016.5mb 57f 53f
7:12 23 29 mph 1016.6mb 57f 52f
7:06 23 29 mph 1016.6mb 57f 53f
7:00 24 29 mph 1016.6mb 57f 53f
6:54 23 29 mph - - -
6:48 24 26 mph - - -
6:36 23 28 mph 1016.9mb 57f 52f
6:30 22 26 mph 1017mb 57f 53f
6:24 24 28 mph 1017.1mb 57f 53f
6:18 22 28 mph 1017.1mb 57f 53f
6:12 24 28 mph 1017.1mb 57f 53f
6:06 21 24 mph 1017.2mb 57f 53f
6:00 23 26 mph 1017.2mb 57f 53f
5:54 23 28 mph 1017.3mb 57f 53f
5:48 25 28 mph 1017.3mb 57f 53f
5:36 22 26 mph 1017.3mb 56f 53f
5:30 24 28 mph 1017.3mb 56f 53f
5:24 24 28 mph 1017.4mb 56f 53f
5:18 23 26 mph 1017.4mb 56f 53f
5:12 23 26 mph 1017.5mb 56f 53f
5:06 22 26 mph 1017.5mb 56f 54f
5:00 22 26 mph 1017.6mb 56f 53f
4:54 22 26 mph 1017.6mb 56f 53f
4:48 23 26 mph 1017.7mb 56f 53f
4:36 22 25 mph 1017.8mb 56f 53f
4:30 22 25 mph 1017.8mb 55f 54f
4:24 21 24 mph 1017.8mb 55f 53f
4:18 21 24 mph 1017.9mb 55f 53f
4:12 22 24 mph 1017.9mb 56f 53f
4:06 21 24 mph 1018mb 56f 54f
4:00 22 24 mph 1018mb 56f 53f
3:54 22 24 mph 1018mb 56f 53f
3:48 22 24 mph 1018.1mb 56f 53f
3:36 20 24 mph 1018.2mb 55f 54f
3:30 21 24 mph 1018.3mb 55f 54f
3:24 22 24 mph 1018.3mb 55f 54f
3:18 21 23 mph 1018.3mb 55f 54f
3:12 18 23 mph 1018.3mb 54f 53f
3:06 22 23 mph 1018.4mb 53f 55f
3:00 22 23 mph 1018.4mb 53f 54f
2:54 21 22 mph 1018.5mb 53f 54f
2:48 17 22 mph 1018.4mb 52f 54f
2:36 18 22 mph 1018.5mb 52f 54f
2:30 18 22 mph 1018.5mb 51f 54f
2:24 18 21 mph 1018.6mb 51f 55f
2:18 18 21 mph 1018.7mb 51f 54f
2:12 18 22 mph 1018.6mb 50f 54f
2:06 18 21 mph 1018.7mb 50f 54f
2:00 20 22 mph 1018.7mb 50f 54f
1:54 20 22 mph 1018.8mb 50f 54f
1:48 18 21 mph 1018.8mb 50f 54f
1:36 16 20 mph 1018.9mb 50f 55f
1:30 18 21 mph 1018.9mb 50f 54f
1:24 17 21 mph 1018.9mb 50f 54f
1:18 17 20 mph 1019mb 50f 54f
1:12 17 20 mph 1019mb 50f 54f
1:06 18 20 mph 1018.9mb 50f 54f
1:00 18 20 mph 1019mb 50f 54f
12:54 17 18 mph 1019mb 50f 55f
12:48 17 20 mph 1019.1mb 51f 54f
12:36 15 16 mph 1019.2mb 51f 55f
12:30 15 17 mph 1019.2mb 51f 54f
12:24 16 17 mph 1019.2mb 51f 54f
12:18 14 16 mph 1019.2mb 51f 53f
12:12 14 16 mph 1019.3mb 52f 53f
12:06 14 15 mph 1019.4mb 52f 53f
12:00 14 15 mph 1019.4mb 52f 54f
11:54 14 15 mph 1019.4mb 53f 54f
11:48 14 15 mph 1019.4mb 54f 54f
11:36 13 15 mph 1019.4mb 55f 54f
11:30 13 15 mph 1019.4mb 55f 54f
11:24 13 14 mph 1019.4mb 55f 53f
11:18 13 14 mph 1019.4mb 55f 53f
11:12 11 14 mph 1019.4mb 56f 53f
11:06 11 13 mph 1019.5mb 56f 53f
11:00 11 13 mph 1019.5mb 56f 53f
10:54 11 13 mph 1019.4mb 56f 53f
10:48 10 13 mph 1019.4mb 56f 53f
10:36 9 11 mph 1019.4mb 56f 53f
10:30 9 10 mph 1019.5mb 56f 53f
10:24 8 9 mph 1019.5mb 56f 53f
10:18 8 9 mph 1019.4mb 56f 53f
10:12 8 9 mph 1019.4mb 56f 53f
10:06 7 8 mph 1019.4mb 56f 52f
10:00 3 7 mph 1019.5mb 56f 52f
9:54 2 3 mph - - -
9:48 2 3 mph 1019.5mb 56f 51f
9:36 3 6 mph 1019.4mb 56f 51f
9:30 3 5 mph 1019.4mb 56f 51f
9:24 3 5 mph 1019.4mb 56f 52f
9:18 3 6 mph 1019.4mb 56f 52f
9:12 2 5 mph 1019.4mb 56f 52f
9:06 3 5 mph 1019.4mb 56f 51f
9:00 2 5 mph 1019.4mb 56f 51f
8:54 2 5 mph 1019.4mb 56f 51f
8:48 2 5 mph 1019.4mb 56f 51f
8:36 2 5 mph 1019.4mb 56f 51f
8:30 3 6 mph 1019.3mb 56f 50f
8:24 5 6 mph 1019.3mb 56f 50f
8:18 5 6 mph 1019.3mb 56f 50f
8:12 5 6 mph 1019.2mb 56f 50f
8:06 5 6 mph - - -
8:00 5 6 mph 1019.2mb 56f 50f
7:54 5 6 mph 1019.2mb 56f 50f
7:48 5 7 mph 1019.2mb 56f 49f
7:36 6 7 mph 1019.1mb 56f 49f
7:30 6 7 mph - - -
7:24 5 6 mph - - -
7:18 5
mph
1019.1mb 56f 49f
7:12 3 6 mph 1019.1mb 56f 49f
7:06 5 6 mph 1019mb 56f 49f
7:00 6
mph
1019mb 56f 49f
6:54 3 6 mph 1018.9mb 56f 49f
6:48 3 5 mph - - -
6:36 3 5 mph 1018.8mb 56f 48f
6:30 5
mph
1018.7mb 56f 48f
6:24 5 6 mph 1018.7mb 56f 48f
6:18 5 6 mph 1018.7mb 56f 48f
6:12 5 6 mph 1018.6mb 56f 49f
6:06 6 7 mph 1018.6mb 56f 49f
6:00 5 6 mph 1018.6mb 56f 48f
5:54 6 7 mph 1018.6mb 56f 48f
5:48 5 6 mph - - -
5:36 5 7 mph 1018.5mb 56f 49f
5:30 6 7 mph 1018.5mb 56f 49f
5:24 6 7 mph 1018.5mb 56f 48f
5:18 6 7 mph 1018.5mb 56f 48f
5:12 5 7 mph 1018.5mb 56f 48f
5:06 6 8 mph 1018.5mb 56f 49f
5:00 7 9 mph 1018.5mb 56f 49f
4:54 6 9 mph 1018.5mb 56f 49f
4:48 7 9 mph 1018.5mb 56f 49f
4:36 7 11 mph 1018.4mb 56f 49f
4:30 7 14 mph 1018.4mb 56f 49f
4:24 10 13 mph 1018.4mb 56f 49f
4:18 9 11 mph 1018.4mb 56f 49f
4:12 8 11 mph 1018.4mb 56f 49f
4:06 9 11 mph 1018.4mb 56f 49f
4:00 7 10 mph 1018.3mb 56f 49f
3:54 7 10 mph 1018.3mb 56f 49f
3:48 7 10 mph 1018.4mb 56f 49f
3:36 9 11 mph 1018.4mb 56f 49f
3:30 8 14 mph 1018.4mb 56f 49f
3:24 10 14 mph 1018.4mb 56f 49f
3:18 13 17 mph 1018.3mb 56f 49f
3:12 15 18 mph 1018.3mb 56f 49f
3:06 16 20 mph 1018.3mb 56f 49f
3:00 16 18 mph 1018.3mb 56f 50f
2:54 16 21 mph 1018.3mb 56f 50f
2:48 17 22 mph 1018.2mb 56f 50f
2:36 18 22 mph 1018.2mb 56f 50f
2:30 17 20 mph 1018.2mb 56f 50f
2:24 17 22 mph 1018.2mb 56f 50f
2:18 22 25 mph 1018.2mb 56f 50f
2:12 20 25 mph 1018.1mb 55f 50f
2:06 22 26 mph 1018.1mb 55f 50f
2:00 22 25 mph 1018.1mb 55f 50f
1:54 23 29 mph 1018.1mb 55f 50f
1:48 28 32 mph 1018.1mb 55f 50f
1:36 26 30 mph 1018.2mb 55f 50f
1:30 28 32 mph 1018.2mb 55f 50f
1:24 26 30 mph 1018.2mb 54f 50f
1:18 28 31 mph 1018.2mb 55f 50f
1:12 26 31 mph 1018.2mb 55f 50f
1:06 28 31 mph 1018.3mb 54f 50f
1:00 28 32 mph 1018.3mb 54f 50f
12:54 29 32 mph 1018.3mb 54f 50f
12:48 25 31 mph 1018.3mb 54f 50f
12:30  -  mph 1018.1mb 55f 50f
12:24  -  mph 1018.3mb 55f 50f
12:18  -  mph 1018.3mb 55f 50f
12:12  -  mph 1018.3mb 55f 50f
12:06  -  mph 1018.3mb 55f 51f
12:00  -  mph 1018.2mb 55f 51f
ven. 05/01 11:54  -  mph 1018.3mb 55f 51f
11:48  -  mph 1018.4mb 55f 51f
11:36 30 33 mph 1018.4mb 55f 51f
11:30 29 33 mph - - -
11:24 28 36 mph 1018.4mb 55f 51f
11:18 25 33 mph - - -
11:12 26 31 mph - - -
11:06 29 36 mph - - -
11:00 29 33 mph - - -
10:54 30 34 mph 1018.4mb 56f 51f
10:48 29 33 mph 1018.3mb 56f 51f
10:36 28 36 mph 1018.2mb 56f 51f
10:30 30 34 mph 1018.2mb 57f 51f
10:24 30 34 mph 1018.1mb 57f 51f
10:18 31 37 mph - - -
10:12 31 37 mph - - -
10:06 31 36 mph 1018mb 57f 51f
10:00 31 36 mph 1017.9mb 57f 51f
9:54 30 36 mph 1017.9mb 57f 51f
9:48 33 39 mph 1017.9mb 57f 51f
9:30  -  mph 1017.7mb 57f 52f
9:24  -  mph 1017.8mb 57f 52f
9:18  -  mph 1017.7mb 57f 52f
9:12  -  mph 1017.6mb 57f 52f
9:06  -  mph 1017.5mb 57f 52f
9:00  -  mph 1017.5mb 57f 52f
8:54  -  mph 1017.5mb 57f 52f
8:48  -  mph 1017.5mb 58f 52f
8:36 33 38 mph 1017.4mb 58f 53f
8:30 31 37 mph 1017.4mb 58f 53f
8:24 25 32 mph 1017.4mb 58f 53f
8:18 28 34 mph 1017.4mb 58f 52f
8:12 30 33 mph 1017.5mb 57f 52f
8:06 29 33 mph 1017.4mb 57f 53f
8:00 28 32 mph 1017.4mb 57f 53f
7:54 30 33 mph 1017.4mb 58f 52f
7:48 28 33 mph 1017.5mb 58f 53f
7:36 30 33 mph 1017.5mb 58f 53f
7:30 29 32 mph 1017.5mb 57f 53f
7:24 29 36 mph 1017.4mb 57f 53f
7:18 29 33 mph 1017.5mb 57f 53f
7:12 29 33 mph 1017.6mb 58f 53f
7:06 30 33 mph 1017.6mb 58f 53f
7:00 29 32 mph 1017.5mb 58f 53f
6:54 32 34 mph 1017.6mb 58f 54f
6:48 29 34 mph 1017.7mb 58f 54f
6:36 30 34 mph 1017.7mb 58f 54f
6:30 30 32 mph 1017.8mb 58f 54f
6:24 29 32 mph 1017.8mb 58f 54f
6:18 29 32 mph 1017.9mb 58f 54f
6:12 28 32 mph 1018mb 58f 54f
6:06 29 33 mph 1018mb 58f 54f
6:00 29 34 mph 1018mb 58f 54f
5:54 28 34 mph 1018mb 58f 54f
5:48 30 33 mph 1017.9mb 58f 54f
5:36 31 36 mph 1017.9mb 58f 54f
5:30 30 37 mph 1018mb 58f 54f
5:24 30 37 mph 1018mb 58f 54f
5:18 29 33 mph 1018.1mb 58f 54f
5:12 29 33 mph 1018.1mb 58f 54f
5:06 28 33 mph 1018.1mb 58f 54f
5:00 30 33 mph 1018.3mb 57f 54f
4:54 30 33 mph 1018.3mb 57f 54f
4:48 26 30 mph 1018.4mb 57f 54f
4:36 24 30 mph 1018.4mb 57f 54f
4:30 28 30 mph 1018.4mb 57f 54f
4:24 25 29 mph 1018.4mb 57f 54f
4:18 25 30 mph 1018.6mb 57f 54f
4:12 26 29 mph 1018.5mb 57f 54f
4:06 23 28 mph 1018.5mb 57f 54f
4:00 24 28 mph 1018.6mb 57f 55f
3:54 25 29 mph 1018.7mb 57f 54f
3:48 22 28 mph 1018.7mb 57f 55f
3:36 23 26 mph 1018.8mb 57f 54f
3:30 21 26 mph 1018.9mb 57f 54f
3:24 22 26 mph 1019mb 57f 54f
3:18 22 26 mph 1019mb 57f 55f
3:12 24 26 mph 1019.1mb 57f 55f
3:06 23 26 mph - - -
3:00 22 26 mph 1019.2mb 57f 55f
2:54 22 25 mph 1019.2mb 57f 55f
2:48 23 24 mph 1019.2mb 57f 55f
2:36 20 24 mph 1019.2mb 57f 55f
2:30 21 23 mph 1019.2mb 56f 55f
2:24 22 25 mph 1019.2mb 56f 55f
2:18 21 24 mph 1019.2mb 56f 55f
2:12 21 25 mph 1019.2mb 56f 55f
2:06 18 23 mph 1019.2mb 56f 55f
2:00 21 26 mph 1019.2mb 56f 55f
1:54 21 24 mph 1019.2mb 56f 55f
1:48 23 26 mph 1019.2mb 55f 55f
1:36 21 25 mph 1019.3mb 55f 55f
1:30 20 26 mph 1019.3mb 55f 55f
1:24 20 23 mph 1019.4mb 55f 55f
1:18 17 22 mph 1019.3mb 55f 55f
1:12 17 22 mph 1019.3mb 55f 55f
1:06  -  mph 1019.3mb 55f 56f
1:00  -  mph 1019.3mb 55f 55f
12:54  -  mph 1019.3mb 55f 55f
12:48  -  mph 1019.3mb 55f 55f
12:36 18 22 mph 1019.3mb 55f 55f
12:30 20 22 mph 1019.3mb 55f 55f
12:24 17 21 mph 1019.3mb 55f 55f
12:18 17 21 mph 1019.3mb 55f 54f
12:12 18 21 mph 1019.3mb 55f 54f
12:06 17 22 mph 1019.3mb 55f 54f
12:00 17 21 mph 1019.3mb 55f 55f
11:54 16 21 mph 1019.4mb 55f 54f
11:48 17 21 mph 1019.3mb 55f 54f
11:36 18 21 mph 1019.4mb 55f 54f
11:30 17 21 mph 1019.4mb 56f 54f
11:24 17 21 mph 1019.4mb 56f 55f
11:18 14 17 mph 1019.4mb 56f 55f
11:12 14 21 mph 1019.4mb 56f 55f
11:06 16 18 mph 1019.4mb 57f 54f
11:00 17 22 mph 1019.4mb 57f 54f
10:54 16 20 mph 1019.4mb 56f 54f
10:48 16 21 mph 1019.4mb 56f 54f
10:36 16 21 mph 1019.4mb 56f 54f
10:30 18 20 mph 1019.3mb 56f 54f
10:24 16 20 mph 1019.3mb 56f 53f
10:18 18 21 mph 1019.3mb 56f 53f
10:12 17 21 mph 1019.3mb 56f 54f
10:06 15 20 mph 1019.3mb 56f 54f
10:00 16 21 mph 1019.3mb 56f 53f
9:54 17 21 mph 1019.3mb 56f 54f
9:48 16 18 mph 1019.2mb 56f 53f
9:36 15 18 mph 1019.2mb 56f 54f
9:30 16 18 mph 1019.3mb 56f 53f
9:24 15 17 mph 1019.3mb 56f 53f
9:18 16 18 mph 1019.3mb 56f 53f
9:12 14 16 mph 1019.3mb 56f 53f
9:06 15 16 mph 1019.3mb 56f 53f
9:00 16 18 mph 1019.2mb 56f 53f
8:54 17 18 mph 1019.2mb 56f 53f
8:48 15 17 mph 1019.3mb 56f 53f
8:36 16 18 mph 1019.2mb 56f 53f
8:30 14 17 mph 1019.2mb 56f 53f
8:24 15 16 mph 1019.3mb 56f 53f
8:18 10 13 mph 1019.3mb 56f 53f
8:12 10 13 mph 1019.3mb 56f 53f
8:06 8 10 mph 1019.3mb 56f 53f
8:00 9 10 mph 1019.3mb 56f 53f
7:54 8 11 mph 1019.2mb 56f 52f
7:48 7 9 mph 1019.2mb 56f 52f
7:36 8 9 mph 1019.2mb 56f 52f
7:30 8 10 mph - - -
7:24 8 9 mph - - -
7:18 7 8 mph 1019.1mb 56f 53f
7:12 8
mph
1019.1mb 56f 53f
7:06 6 8 mph 1019mb 57f 52f
7:00 7 8 mph 1019mb 57f 52f
6:54 7 9 mph 1019mb 57f 52f
6:48 9
mph
1019mb 57f 52f
6:36 8 10 mph 1018.9mb 57f 52f
6:30 7 8 mph 1018.8mb 57f 52f
6:24 7 8 mph - - -
6:18 7 8 mph 1018.8mb 57f 52f
6:12 7 8 mph 1018.8mb 57f 52f
6:06 6 8 mph 1018.8mb 57f 52f
6:00 7 10 mph 1018.8mb 57f 52f
5:54 9 10 mph 1018.8mb 57f 52f
5:48 6 7 mph 1018.8mb 57f 52f
5:36 6 7 mph 1018.9mb 57f 52f
5:30 7 8 mph 1018.9mb 57f 52f
5:24 6 8 mph 1018.9mb 57f 52f
5:18 7 9 mph 1018.9mb 57f 52f
5:12 7 8 mph 1018.9mb 56f 52f
5:06 7 8 mph 1019mb 56f 52f
5:00 6 7 mph 1019mb 56f 52f
4:54 3 6 mph 1019mb 56f 52f
4:48 6 7 mph 1019.1mb 56f 52f
4:36 6 7 mph 1019.2mb 56f 52f
4:30 5 6 mph 1019.3mb 56f 52f
4:24 3 6 mph 1019.3mb 56f 52f
4:18 5 6 mph 1019.3mb 56f 52f
4:12 3 5 mph 1019.3mb 56f 53f
4:06 3 5 mph 1019.3mb 56f 53f
4:00 3 5 mph 1019.3mb 56f 52f
3:54 5
mph
1019.2mb 56f 52f
3:48 5 6 mph 1019.2mb 56f 52f
3:36 3 8 mph 1019.7mb 56f 52f
3:30 7 8 mph 1019.8mb 56f 52f
3:24 7 8 mph 1019.8mb 56f 52f
3:18 7 8 mph 1019.9mb 56f 52f
3:12 7 8 mph 1019.9mb 56f 52f
3:06 7 8 mph 1020mb 56f 52f
3:00 6 7 mph 1020mb 56f 52f
2:54 6 7 mph 1020mb 56f 52f
2:48 6 7 mph 1019.9mb 56f 52f
2:36 6 7 mph 1020mb 56f 52f
2:30 6 7 mph 1020mb 56f 52f
2:24 6
mph
1020mb 56f 52f
2:18 3 5 mph 1020.1mb 56f 52f
2:12 3 5 mph 1020mb 55f 52f
2:06 3 5 mph 1020.1mb 55f 52f
2:00 5 6 mph 1020.2mb 55f 52f
1:54 5 6 mph 1020.2mb 55f 52f
1:48 3 6 mph 1020.3mb 55f 52f
1:30  -  mph 1020.4mb 55f 52f
1:24  -  mph 1020.5mb 55f 52f
1:18  -  mph 1020.6mb 55f 52f
1:12  -  mph 1020.6mb 55f 52f
1:06  -  mph 1020.6mb 55f 52f
1:00  -  mph 1020.7mb 55f 52f
12:54  -  mph 1020.7mb 55f 52f
12:48  -  mph 1020.8mb 55f 52f
12:36 6 7 mph 1020.8mb 55f 52f
12:30 6 7 mph 1020.8mb 55f 52f
12:24 6
mph
- - -
12:18 5 6 mph - - -
12:12 6 7 mph 1020.8mb 55f 52f
12:06 5 7 mph - - -
12:00 7 8 mph 1020.9mb 55f 52f
jeu. 04/30 11:54 8 9 mph - - -
11:48 8 10 mph - - -
11:18  -  mph 1021.4mb 55f 53f
10:54  -  mph 1021.5mb 56f 53f
10:48  -  mph 1021.6mb 56f 53f
10:36 8 9 mph 1021.6mb 57f 53f
10:30 8 11 mph 1021.7mb 57f 53f
10:24 9 10 mph 1021.8mb 57f 53f
10:18 9 10 mph 1021.8mb 57f 53f
10:12 8 10 mph 1021.9mb 57f 53f
10:06 7 9 mph 1021.8mb 57f 53f
10:00 8 10 mph 1021.9mb 57f 53f
9:54 9 10 mph 1022mb 57f 53f
9:48 8
mph
1021.9mb 57f 53f
9:36 8
mph
1021.9mb 57f 53f
9:30 8 9 mph 1021.8mb 57f 53f
9:24 7 9 mph 1021.8mb 57f 53f
9:18 7 9 mph 1021.7mb 57f 53f
9:12 8 9 mph 1021.7mb 57f 53f
9:06 9 10 mph 1021.7mb 57f 53f
9:00 9 10 mph 1021.7mb 57f 53f
8:54 10 13 mph 1021.7mb 57f 53f
8:48 13 14 mph 1021.7mb 57f 53f
8:36 13 15 mph 1021.7mb 57f 53f
8:30 14 15 mph 1021.6mb 57f 53f
8:24 15 16 mph 1021.7mb 57f 53f
8:18 14 16 mph 1021.7mb 56f 53f
8:12 15 17 mph 1021.7mb 56f 53f
8:06 15 16 mph 1021.8mb 56f 53f
8:00 16 17 mph 1021.9mb 56f 53f
7:54 16 17 mph 1022mb 56f 53f
7:48 15 17 mph 1022mb 56f 54f
7:36 16 17 mph 1022mb 56f 54f
7:30 16 17 mph 1022.1mb 56f 54f
7:24 15 16 mph 1022.1mb 56f 54f
7:18 15 16 mph 1022.2mb 56f 54f
7:12 15 16 mph 1022.2mb 56f 54f
7:06 14 15 mph 1022.3mb 57f 54f
7:00 14 15 mph 1022.3mb 57f 54f
6:54 14 15 mph 1022.4mb 57f 54f
6:48 11 14 mph 1022.4mb 57f 55f
6:36 11 13 mph 1022.6mb 57f 54f
6:30 13 14 mph 1022.7mb 57f 54f
6:24 13 14 mph 1022.8mb 57f 55f
6:18 14 15 mph 1022.9mb 57f 55f
6:12 14 15 mph 1022.9mb 57f 54f
6:06 14 15 mph 1023mb 57f 55f
6:00 15 16 mph 1023.2mb 57f 55f
5:54 15 16 mph 1023.3mb 57f 55f
5:48 14 16 mph 1023.3mb 57f 55f
5:36 14 16 mph 1023.3mb 57f 55f
5:30 13 15 mph 1023.4mb 57f 55f
5:24 14 15 mph 1023.5mb 57f 55f
5:18 14 15 mph 1023.5mb 57f 55f
5:12 13 15 mph 1023.6mb 57f 55f
5:06 13 14 mph 1023.7mb 57f 55f
5:00 14 15 mph 1023.8mb 57f 55f
4:54 14
mph
1023.8mb 57f 55f
4:48 11 14 mph 1023.9mb 57f 55f
4:36 13 15 mph 1024mb 57f 55f
3:36 13 14 mph 1024.7mb 57f 55f
3:30 14 15 mph 1024.9mb 57f 54f
3:24 14 15 mph 1024.9mb 57f 54f
3:18 14
mph
1025mb 57f 55f
3:12 14 15 mph 1025.1mb 57f 55f
3:06 13 14 mph 1025.1mb 57f 55f
3:00 14 15 mph 1025.2mb 57f 55f
2:54 14
mph
1025.4mb 57f 55f
2:48 14 15 mph 1025.4mb 57f 54f
2:36 13 14 mph 1025.6mb 56f 55f
2:30 11 14 mph 1025.6mb 56f 54f
2:24 11 13 mph 1025.7mb 56f 54f
2:18 13 14 mph 1025.8mb 56f 54f
2:12 10 13 mph 1025.9mb 56f 55f
2:06 10 13 mph 1025.9mb 56f 54f
2:00 11 13 mph 1025.9mb 56f 55f
1:54 10 13 mph 1026mb 56f 55f
1:48 10 13 mph 1026mb 56f 54f
1:36 10 11 mph 1026.1mb 56f 54f
1:30 10 11 mph 1026.2mb 56f 54f
1:24 8 10 mph 1026.2mb 56f 55f
1:18 8 9 mph 1026.2mb 55f 54f
1:12 7 9 mph 1026.2mb 55f 55f
1:06 8 9 mph 1026.2mb 55f 55f
1:00 7 9 mph 1026.2mb 55f 54f
12:54 7 8 mph 1026.3mb 55f 55f
12:48 6 8 mph 1026.4mb 55f 54f
12:36 6 8 mph 1026.5mb 55f 54f
12:30 7 8 mph 1026.5mb 55f 54f
12:24 6 8 mph 1026.6mb 55f 53f
12:18 6 8 mph - - -
12:12 6 8 mph - - -
12:06 6 7 mph - - -
12:00 6 8 mph - - -
11:54 6 7 mph - - -
11:48 6 8 mph - - -
11:36 5 8 mph 1026.7mb 55f 53f
11:30 5 8 mph 1026.7mb 55f 53f
11:24 6 9 mph 1026.8mb 55f 53f
11:18 6 8 mph 1026.8mb 55f 54f
11:12 6 8 mph 1026.9mb 55f 54f
11:06 5 8 mph 1027mb 55f 54f
11:00 5 7 mph 1027mb 55f 53f
10:54 5 7 mph 1026.9mb 55f 53f
10:48 5 8 mph 1027mb 55f 53f
10:36 5 6 mph 1026.9mb 56f 55f
10:30 5 7 mph 1026.9mb 55f 56f
10:24 3 6 mph 1026.9mb 55f 55f
10:18 5 7 mph 1026.9mb 55f 54f
10:12 3 7 mph 1026.9mb 56f 53f
10:06 5 7 mph 1027mb 55f 55f
10:00 6 7 mph 1027.1mb 55f 54f
9:54 5 7 mph 1027.1mb 55f 54f
9:48 6
mph
1027.1mb 55f 53f
9:36 5 7 mph 1027.1mb 55f 53f
9:30 3 5 mph 1027.1mb 55f 53f
9:24 3 5 mph 1027.2mb 55f 53f
9:18 3
mph
1027.2mb 55f 53f
9:12 2
mph
1027.2mb 55f 52f
9:06 2 3 mph 1027.2mb 55f 53f
9:00  -  2 mph 1027.1mb 55f 52f
8:54  -  2 mph 1027.2mb 55f 52f
8:48  -  2 mph 1027.2mb 55f 52f
8:36  -  2 mph 1027.2mb 55f 52f
8:30 1 2 mph 1027.2mb 55f 52f
8:24 1 3 mph 1027.2mb 55f 52f
8:18 1 2 mph 1027.1mb 55f 51f
8:12 1 2 mph 1027.1mb 55f 51f
8:06  -  1 mph 1027.1mb 55f 51f
8:00 1 2 mph 1027.1mb 55f 50f
7:54 1 2 mph 1027.1mb 55f 50f
7:48 1 2 mph 1027.1mb 55f 50f
7:36 2 3 mph 1026.9mb 55f 49f
7:30 2 3 mph 1026.9mb 55f 49f
7:24 3
mph
1026.9mb 55f 48f
7:18 3
mph
1026.9mb 55f 48f
7:12 2
mph
1026.9mb 55f 48f
7:06 2
mph
1026.9mb 55f 48f
7:00 2 5 mph 1026.8mb 55f 48f
6:54 2
mph
1026.9mb 55f 48f
6:48 2 3 mph 1026.8mb 55f 48f
6:36 2 3 mph 1026.8mb 55f 47f
6:30 3 6 mph 1026.8mb 55f 47f
6:24 3 5 mph 1026.8mb 55f 48f
6:18 5 7 mph 1026.8mb 55f 48f
6:12 5 8 mph 1026.8mb 55f 48f
6:06 7 8 mph 1026.8mb 55f 48f
6:00 8
mph
1026.7mb 55f 48f
5:54 8
mph
1026.8mb 55f 48f
5:48 7 8 mph 1026.8mb 55f 48f
5:36 7
mph
1026.8mb 55f 47f
5:30 6 7 mph 1026.8mb 55f 47f
5:24 7 8 mph 1026.8mb 55f 47f
5:18 7 9 mph 1026.9mb 55f 47f
5:12 7 9 mph 1026.9mb 55f 47f
5:06 7 8 mph 1026.8mb 55f 47f
5:00 7 9 mph 1026.9mb 55f 47f
4:54 8 10 mph 1026.9mb 55f 47f
4:48 8 9 mph 1026.9mb 55f 48f
4:36 7 8 mph 1026.9mb 55f 48f
4:30 7 9 mph 1026.9mb 55f 48f
4:24 7 9 mph 1027mb 55f 48f
4:18 6 8 mph 1026.9mb 55f 48f
4:12 6 8 mph 1026.8mb 55f 48f